Time;durP1;ratioP1;P1;durP2;ratioP2;P2;SDS_P1;SDS_P2;PMS_P1;PMS_P2;Temp;Humidity;BMP_temperature;BMP_pressure;BME280_temperature;BME280_humidity;BME280_pressure;Samples;Min_cycle;Max_cycle;Signal;HPM_P1;HPM_P2
2022/03/16 00:01:47;;;;;;;35.73;31.87;;;9.70;99.90;;;;;;6183682;23;20417;-84
2022/03/16 00:04:13;;;;;;;35.20;30.53;;;9.70;99.90;;;;;;6183558;23;21269;-85
2022/03/16 00:06:43;;;;;;;34.67;30.30;;;9.70;99.90;;;;;;6190817;23;20417;-84
2022/03/16 00:09:09;;;;;;;35.47;31.73;;;9.70;99.90;;;;;;6193013;23;20422;-84
2022/03/16 00:11:36;;;;;;;32.67;29.10;;;9.60;99.90;;;;;;6190293;23;20398;-85
2022/03/16 00:14:03;;;;;;;33.00;29.47;;;9.60;99.90;;;;;;6203304;23;20403;-86
2022/03/16 00:16:30;;;;;;;36.40;32.23;;;9.60;99.90;;;;;;6190467;23;20498;-85
2022/03/16 00:18:56;;;;;;;38.50;33.73;;;9.60;99.90;;;;;;6199494;23;20476;-86
2022/03/16 00:21:23;;;;;;;37.37;32.37;;;9.60;99.90;;;;;;6204623;23;20409;-87
2022/03/16 00:23:51;;;;;;;37.30;32.17;;;9.60;99.90;;;;;;6193586;23;20404;-86
2022/03/16 00:26:17;;;;;;;36.60;31.57;;;9.60;99.90;;;;;;6189874;23;20897;-85
2022/03/16 00:28:44;;;;;;;37.70;33.57;;;9.60;99.90;;;;;;6189076;23;20421;-87
2022/03/16 00:31:11;;;;;;;38.20;34.07;;;9.60;99.90;;;;;;6189446;23;20406;-87
2022/03/16 00:33:37;;;;;;;38.03;31.70;;;9.50;99.90;;;;;;6189307;23;20438;-85
2022/03/16 00:36:04;;;;;;;36.93;32.27;;;9.50;99.90;;;;;;6189015;23;20484;-87
2022/03/16 00:38:31;;;;;;;40.63;33.80;;;9.50;99.90;;;;;;6188050;23;20476;-86
2022/03/16 00:40:59;;;;;;;42.20;35.10;;;9.50;99.90;;;;;;6189638;23;20433;-86
2022/03/16 00:43:26;;;;;;;41.37;35.80;;;9.50;99.90;;;;;;6188606;23;20783;-86
2022/03/16 00:45:52;;;;;;;39.13;33.20;;;9.50;99.90;;;;;;6188452;23;20414;-84
2022/03/16 00:48:19;;;;;;;43.37;35.47;;;9.50;99.90;;;;;;6189442;23;20422;-85
2022/03/16 00:50:46;;;;;;;41.20;34.77;;;9.50;99.90;;;;;;6199425;23;20414;-85
2022/03/16 00:53:13;;;;;;;42.07;34.60;;;9.50;99.90;;;;;;6193505;23;20438;-86
2022/03/16 00:55:39;;;;;;;42.80;33.53;;;9.50;99.90;;;;;;6188401;23;20407;-86
2022/03/16 00:58:07;;;;;;;45.80;37.60;;;9.40;99.90;;;;;;6189000;23;20437;-86
2022/03/16 01:00:34;;;;;;;43.17;35.27;;;9.40;99.90;;;;;;6188654;23;20443;-86
2022/03/16 01:03:01;;;;;;;44.27;35.67;;;9.40;99.90;;;;;;6196220;23;20402;-86
2022/03/16 01:05:27;;;;;;;45.47;36.17;;;9.40;99.90;;;;;;6209249;23;20390;-84
2022/03/16 01:07:54;;;;;;;44.77;35.43;;;9.40;99.90;;;;;;6210712;23;20426;-84
2022/03/16 01:10:21;;;;;;;46.80;35.30;;;9.40;99.90;;;;;;6210727;23;20615;-85
2022/03/16 01:12:47;;;;;;;46.33;35.73;;;9.40;99.90;;;;;;6198721;23;20473;-83
2022/03/16 01:15:15;;;;;;;45.97;35.77;;;9.40;99.90;;;;;;6193666;23;21184;-84
2022/03/16 01:17:42;;;;;;;46.13;36.57;;;9.40;99.90;;;;;;6192751;23;20430;-84
2022/03/16 01:20:09;;;;;;;45.93;36.53;;;9.40;99.90;;;;;;6192511;23;20390;-85
2022/03/16 01:22:36;;;;;;;45.07;35.57;;;9.40;99.90;;;;;;6191360;23;20406;-86
2022/03/16 01:25:02;;;;;;;45.00;35.87;;;9.40;99.90;;;;;;6190750;23;20402;-85
2022/03/16 01:27:29;;;;;;;45.07;36.87;;;9.40;99.90;;;;;;6189623;23;20409;-85
2022/03/16 01:29:56;;;;;;;49.17;38.30;;;9.50;99.90;;;;;;6190957;23;20418;-86
2022/03/16 01:32:24;;;;;;;46.40;37.07;;;9.50;99.90;;;;;;6195090;23;20425;-85
2022/03/16 01:34:50;;;;;;;46.80;36.50;;;9.50;99.90;;;;;;6194365;23;20409;-85
2022/03/16 01:37:17;;;;;;;45.77;37.10;;;9.50;99.90;;;;;;6192017;23;20402;-86
2022/03/16 01:39:44;;;;;;;46.67;34.87;;;9.50;99.90;;;;;;6203688;23;20406;-85
2022/03/16 01:42:11;;;;;;;49.23;39.53;;;9.50;99.90;;;;;;6192562;23;20444;-87
2022/03/16 01:44:42;;;;;;;48.17;39.20;;;9.50;99.90;;;;;;6194869;23;20392;-86
2022/03/16 01:47:09;;;;;;;54.50;39.40;;;9.50;99.90;;;;;;6204471;23;20399;-87
2022/03/16 01:49:37;;;;;;;49.13;39.30;;;9.50;99.90;;;;;;6194153;23;20422;-84
2022/03/16 01:52:05;;;;;;;53.00;39.77;;;9.50;99.90;;;;;;6192528;23;20409;-85
2022/03/16 01:54:31;;;;;;;49.33;38.00;;;9.50;99.90;;;;;;6192838;23;20406;-86
2022/03/16 01:56:59;;;;;;;52.30;39.17;;;9.50;99.90;;;;;;6192390;23;20406;-86
2022/03/16 01:59:26;;;;;;;51.17;37.67;;;9.50;99.90;;;;;;6194366;23;20457;-85
2022/03/16 02:01:53;;;;;;;49.03;37.00;;;9.60;99.90;;;;;;6195129;23;20402;-85
2022/03/16 02:04:19;;;;;;;50.80;38.80;;;9.50;99.90;;;;;;6206544;23;20402;-85
2022/03/16 02:06:47;;;;;;;48.90;38.00;;;9.60;99.90;;;;;;6193432;23;20413;-86
2022/03/16 02:09:14;;;;;;;51.50;38.00;;;9.60;99.90;;;;;;6194815;23;20532;-83
2022/03/16 02:11:41;;;;;;;53.20;39.60;;;9.60;99.90;;;;;;6202015;23;20401;-83
2022/03/16 02:14:07;;;;;;;48.73;38.23;;;9.60;99.90;;;;;;6211781;23;20428;-86
2022/03/16 02:16:34;;;;;;;52.27;36.50;;;9.60;99.90;;;;;;6197194;23;20402;-86
2022/03/16 02:19:01;;;;;;;47.77;38.30;;;9.60;99.90;;;;;;6193031;23;20468;-84
2022/03/16 02:21:30;;;;;;;50.10;37.40;;;9.60;99.90;;;;;;6190455;23;20418;-85
2022/03/16 02:23:58;;;;;;;49.80;38.20;;;9.60;99.90;;;;;;6192788;23;20433;-85
2022/03/16 02:26:26;;;;;;;48.47;37.70;;;9.60;99.90;;;;;;6188896;23;20488;-86
2022/03/16 02:28:53;;;;;;;51.70;41.47;;;9.60;99.90;;;;;;6186001;23;20689;-83
2022/03/16 02:31:20;;;;;;;51.20;37.37;;;9.60;99.90;;;;;;6187162;23;20441;-84
2022/03/16 02:33:47;;;;;;;48.73;37.13;;;9.60;99.90;;;;;;6195279;23;20462;-87
2022/03/16 02:36:14;;;;;;;49.73;37.40;;;9.60;99.90;;;;;;6196317;23;20413;-87
2022/03/16 02:38:41;;;;;;;49.20;37.17;;;9.60;99.90;;;;;;6193126;23;20425;-87
2022/03/16 02:41:09;;;;;;;48.40;39.03;;;9.60;99.90;;;;;;6191594;23;20406;-86
2022/03/16 02:43:36;;;;;;;47.30;37.70;;;9.60;99.90;;;;;;6190739;23;20398;-86
2022/03/16 02:46:04;;;;;;;50.27;37.27;;;9.60;99.90;;;;;;6190817;23;20409;-84
2022/03/16 02:48:30;;;;;;;54.27;39.40;;;9.60;99.90;;;;;;6190543;23;20486;-85
2022/03/16 02:50:57;;;;;;;56.63;40.80;;;9.60;99.90;;;;;;6191044;23;20409;-86
2022/03/16 02:53:24;;;;;;;52.20;40.30;;;9.60;99.90;;;;;;6203256;23;20422;-85
2022/03/16 02:55:51;;;;;;;53.77;39.27;;;9.60;99.90;;;;;;6205821;23;20456;-85
2022/03/16 02:58:19;;;;;;;52.50;40.37;;;9.60;99.90;;;;;;6203291;23;20493;-85
2022/03/16 03:00:46;;;;;;;51.90;38.60;;;9.60;99.90;;;;;;6191479;23;20405;-86
2022/03/16 03:03:13;;;;;;;51.67;39.70;;;9.60;99.90;;;;;;6190523;23;20472;-85
2022/03/16 03:05:40;;;;;;;55.07;40.43;;;9.60;99.90;;;;;;6190916;23;20419;-86
2022/03/16 03:08:06;;;;;;;55.50;41.47;;;9.60;99.90;;;;;;6190916;23;20452;-85
2022/03/16 03:10:33;;;;;;;57.30;42.10;;;9.60;99.90;;;;;;6190164;23;20409;-84
2022/03/16 03:13:00;;;;;;;54.90;42.87;;;9.50;99.90;;;;;;6198248;23;20473;-84
2022/03/16 03:15:28;;;;;;;61.30;44.10;;;9.50;99.90;;;;;;6205137;23;20394;-85
2022/03/16 03:17:55;;;;;;;52.43;39.83;;;9.50;99.90;;;;;;6200680;23;20468;-84
2022/03/16 03:20:21;;;;;;;54.53;39.87;;;9.60;99.90;;;;;;6199692;23;20390;-84
2022/03/16 03:22:48;;;;;;;53.63;38.77;;;9.50;99.90;;;;;;6208439;23;21037;-83
2022/03/16 03:25:16;;;;;;;52.97;41.80;;;9.50;99.90;;;;;;6209044;23;20433;-85
2022/03/16 03:27:43;;;;;;;56.50;40.47;;;9.50;99.90;;;;;;6204676;23;20788;-84
2022/03/16 03:30:11;;;;;;;49.97;37.53;;;9.50;99.90;;;;;;6193431;23;20410;-86
2022/03/16 03:32:39;;;;;;;53.30;40.67;;;9.50;99.90;;;;;;6191378;23;20413;-86
2022/03/16 03:35:07;;;;;;;59.87;42.43;;;9.50;99.90;;;;;;6191655;23;20409;-84
2022/03/16 03:37:34;;;;;;;54.90;39.00;;;9.50;99.90;;;;;;6187326;23;20779;-84
2022/03/16 03:40:00;;;;;;;59.37;41.07;;;9.50;99.90;;;;;;6187992;23;20413;-84
2022/03/16 03:42:27;;;;;;;56.23;41.03;;;9.60;99.90;;;;;;6186279;23;20405;-85
2022/03/16 03:44:54;;;;;;;53.83;42.80;;;9.60;99.90;;;;;;6189204;23;20406;-86
2022/03/16 03:47:20;;;;;;;54.57;41.70;;;9.60;99.90;;;;;;6191383;23;20799;-85
2022/03/16 03:49:48;;;;;;;52.73;40.27;;;9.60;99.90;;;;;;6193121;23;20509;-87
2022/03/16 03:52:15;;;;;;;56.90;41.80;;;9.60;99.90;;;;;;6192932;23;20402;-86
2022/03/16 03:54:42;;;;;;;59.07;41.77;;;9.60;99.90;;;;;;6208544;23;20454;-88
2022/03/16 03:57:08;;;;;;;53.87;39.90;;;9.60;99.90;;;;;;6192468;23;20409;-86
2022/03/16 03:59:35;;;;;;;55.53;42.77;;;9.60;99.90;;;;;;6189471;23;20453;-85
2022/03/16 04:02:02;;;;;;;51.57;39.40;;;9.60;99.90;;;;;;6189635;23;20897;-87
2022/03/16 04:04:28;;;;;;;53.60;40.63;;;9.60;99.90;;;;;;6190418;23;20460;-86
2022/03/16 04:06:56;;;;;;;58.27;42.47;;;9.60;99.90;;;;;;6206127;23;20397;-83
2022/03/16 04:09:28;;;;;;;58.77;42.07;;;9.60;99.90;;;;;;6203072;23;20455;-85
2022/03/16 04:11:55;;;;;;;54.60;40.43;;;9.60;99.90;;;;;;6194723;23;20394;-85
2022/03/16 04:14:22;;;;;;;56.40;41.77;;;9.60;99.90;;;;;;6191843;23;20468;-86
2022/03/16 04:16:48;;;;;;;52.13;39.53;;;9.50;99.90;;;;;;6194343;23;20429;-83
2022/03/16 04:19:15;;;;;;;55.70;42.60;;;9.50;99.90;;;;;;6191898;23;20835;-86
2022/03/16 04:21:41;;;;;;;60.67;43.80;;;9.50;99.90;;;;;;6188336;23;20414;-88
2022/03/16 04:24:09;;;;;;;58.30;43.43;;;9.50;99.90;;;;;;6188817;23;20406;-85
2022/03/16 04:26:36;;;;;;;58.20;42.60;;;9.50;99.90;;;;;;6188520;23;20401;-86
2022/03/16 04:29:03;;;;;;;56.00;42.80;;;9.60;99.90;;;;;;6188672;23;20430;-86
2022/03/16 04:31:30;;;;;;;51.60;38.80;;;9.60;99.90;;;;;;6189185;23;20464;-87
2022/03/16 04:33:57;;;;;;;63.60;43.20;;;9.60;99.90;;;;;;6189220;23;20441;-87
2022/03/16 04:36:24;;;;;;;59.00;42.97;;;9.50;99.90;;;;;;6191626;23;20437;-85
2022/03/16 04:38:51;;;;;;;58.73;43.63;;;9.50;99.90;;;;;;6202169;23;20440;-84
2022/03/16 04:41:19;;;;;;;58.87;42.73;;;9.60;99.90;;;;;;6210244;23;20441;-86
2022/03/16 04:43:45;;;;;;;59.93;44.97;;;9.50;99.90;;;;;;6190210;23;20405;-83
2022/03/16 04:46:12;;;;;;;60.17;43.40;;;9.50;99.90;;;;;;6184411;23;20386;-83
2022/03/16 04:48:39;;;;;;;65.53;46.47;;;9.60;99.90;;;;;;6185398;23;20749;-83
2022/03/16 04:51:05;;;;;;;58.43;42.17;;;9.60;99.90;;;;;;6187962;23;20452;-88
2022/03/16 04:53:32;;;;;;;59.37;42.40;;;9.50;99.90;;;;;;6188638;23;20786;-85
2022/03/16 04:55:59;;;;;;;61.33;42.70;;;9.60;99.90;;;;;;6187530;23;20406;-84
2022/03/16 04:58:27;;;;;;;53.33;41.20;;;9.60;99.90;;;;;;6187578;23;20465;-86
2022/03/16 05:00:54;;;;;;;59.10;43.57;;;9.60;99.90;;;;;;6197537;23;20488;-84
2022/03/16 05:03:20;;;;;;;55.03;41.87;;;9.60;99.90;;;;;;6202864;23;20398;-86
2022/03/16 05:05:47;;;;;;;58.03;41.67;;;9.60;99.90;;;;;;6191179;23;20409;-86
2022/03/16 05:08:14;;;;;;;57.67;43.77;;;9.50;99.90;;;;;;6188822;23;20739;-85
2022/03/16 05:10:41;;;;;;;59.43;43.47;;;9.60;99.90;;;;;;6190643;23;20402;-86
2022/03/16 05:13:07;;;;;;;56.50;42.70;;;9.50;99.90;;;;;;6188419;23;20406;-85
2022/03/16 05:15:36;;;;;;;60.17;43.10;;;9.50;99.90;;;;;;6188770;23;20412;-85
2022/03/16 05:18:02;;;;;;;59.83;41.37;;;9.50;99.90;;;;;;6188988;23;20468;-86
2022/03/16 05:20:29;;;;;;;61.40;44.77;;;9.50;99.90;;;;;;6192337;23;20391;-84
2022/03/16 05:22:56;;;;;;;61.70;44.70;;;9.50;99.90;;;;;;6193309;23;20402;-85
2022/03/16 05:25:26;;;;;;;60.00;41.07;;;9.50;99.90;;;;;;6189632;23;20622;-85
2022/03/16 05:27:53;;;;;;;57.17;42.67;;;9.50;99.90;;;;;;6187787;23;20464;-85
2022/03/16 05:30:22;;;;;;;57.83;43.23;;;9.60;99.90;;;;;;6188278;23;20401;-86
2022/03/16 05:32:53;;;;;;;57.70;44.20;;;9.50;99.90;;;;;;6187725;23;20904;-85
2022/03/16 05:35:19;;;;;;;56.03;42.37;;;9.50;99.90;;;;;;6188859;23;20426;-85
2022/03/16 05:37:46;;;;;;;57.37;43.37;;;9.50;99.90;;;;;;6199953;23;20461;-85
2022/03/16 05:40:13;;;;;;;58.90;44.00;;;9.50;99.90;;;;;;6205364;23;20402;-85
2022/03/16 05:42:40;;;;;;;57.90;42.17;;;9.60;99.90;;;;;;6206984;23;20406;-84
2022/03/16 05:45:08;;;;;;;58.33;43.23;;;9.50;99.90;;;;;;6208744;23;20503;-83
2022/03/16 05:47:35;;;;;;;56.20;41.77;;;9.60;99.90;;;;;;6206279;23;20398;-85
2022/03/16 05:50:04;;;;;;;59.67;45.90;;;9.60;99.90;;;;;;6199639;23;20437;-84
2022/03/16 05:52:31;;;;;;;58.33;44.47;;;9.60;99.90;;;;;;6194118;23;20413;-84
2022/03/16 05:54:59;;;;;;;61.63;43.30;;;9.60;99.90;;;;;;6193422;23;20473;-85
2022/03/16 05:57:26;;;;;;;63.37;46.77;;;9.60;99.90;;;;;;6191974;23;20410;-84
2022/03/16 05:59:53;;;;;;;63.87;45.40;;;9.50;99.90;;;;;;6191499;23;20406;-84
2022/03/16 06:02:20;;;;;;;62.63;44.93;;;9.60;99.90;;;;;;6188809;23;20410;-83
2022/03/16 06:04:47;;;;;;;54.53;42.47;;;9.50;99.90;;;;;;6189189;23;20413;-84
2022/03/16 06:07:15;;;;;;;55.63;44.90;;;9.60;99.90;;;;;;6189606;23;20469;-85
2022/03/16 06:09:41;;;;;;;55.83;42.73;;;9.60;99.90;;;;;;6188902;23;20484;-84
2022/03/16 06:12:10;;;;;;;59.20;44.87;;;9.70;99.90;;;;;;6188574;23;20410;-84
2022/03/16 06:14:36;;;;;;;61.30;43.80;;;9.70;99.90;;;;;;6196448;23;20504;-86
2022/03/16 06:17:04;;;;;;;59.80;42.27;;;9.60;99.90;;;;;;6192160;23;20411;-85
2022/03/16 06:19:30;;;;;;;69.30;45.07;;;9.50;99.90;;;;;;6191332;23;20438;-85
2022/03/16 06:21:57;;;;;;;65.20;43.03;;;9.40;99.90;;;;;;6191249;23;20409;-85
2022/03/16 06:24:25;;;;;;;60.67;42.03;;;9.40;99.90;;;;;;6203251;23;20405;-86
2022/03/16 06:26:52;;;;;;;67.90;43.57;;;9.30;99.90;;;;;;6208571;23;20455;-85
2022/03/16 06:29:18;;;;;;;55.03;40.00;;;9.10;99.90;;;;;;6190450;23;20738;-85
2022/03/16 06:31:45;;;;;;;58.50;39.80;;;9.00;99.90;;;;;;6188083;23;20456;-84
2022/03/16 06:34:12;;;;;;;57.73;37.00;;;9.00;99.90;;;;;;6188862;23;20437;-85
2022/03/16 06:36:38;;;;;;;59.83;40.00;;;8.90;99.90;;;;;;6189166;23;20387;-83
2022/03/16 06:39:05;;;;;;;59.03;37.47;;;8.90;99.90;;;;;;6187396;23;20426;-84
2022/03/16 06:41:33;;;;;;;61.00;38.87;;;8.90;99.90;;;;;;6187554;23;20401;-83
2022/03/16 06:44:00;;;;;;;55.80;38.53;;;8.90;99.90;;;;;;6188675;23;20409;-84
2022/03/16 06:46:28;;;;;;;52.83;36.90;;;8.90;99.90;;;;;;6189040;23;20405;-85
2022/03/16 06:48:54;;;;;;;54.03;36.53;;;8.90;99.90;;;;;;6187090;23;20441;-83
2022/03/16 06:51:22;;;;;;;49.23;34.30;;;8.90;99.90;;;;;;6186310;23;20409;-81
2022/03/16 06:53:49;;;;;;;53.23;37.10;;;8.80;99.90;;;;;;6186726;23;20448;-82
2022/03/16 06:56:15;;;;;;;54.40;39.30;;;8.70;99.90;;;;;;6188644;23;20417;-81
2022/03/16 06:58:43;;;;;;;53.47;37.30;;;8.70;99.90;;;;;;6188314;23;20428;-82
2022/03/16 07:01:10;;;;;;;51.37;38.20;;;8.70;99.90;;;;;;6189020;23;20468;-82
2022/03/16 07:03:37;;;;;;;54.53;37.20;;;8.70;99.90;;;;;;6186889;23;20935;-82
2022/03/16 07:06:04;;;;;;;55.73;38.03;;;8.80;99.90;;;;;;6185913;23;21230;-82
2022/03/16 07:08:31;;;;;;;50.83;37.70;;;8.80;99.90;;;;;;6187890;23;20458;-83
2022/03/16 07:10:57;;;;;;;55.97;38.83;;;8.90;99.90;;;;;;6188709;23;20406;-81
2022/03/16 07:13:24;;;;;;;49.07;36.23;;;9.10;99.90;;;;;;6194520;23;20412;-82
2022/03/16 07:15:52;;;;;;;49.93;34.43;;;9.30;99.90;;;;;;6186786;23;20452;-82
2022/03/16 07:18:19;;;;;;;46.57;33.97;;;9.30;99.90;;;;;;6192925;23;20430;-83
2022/03/16 07:20:47;;;;;;;46.13;34.63;;;9.30;99.90;;;;;;6192353;23;20402;-83
2022/03/16 07:23:15;;;;;;;48.17;34.83;;;9.30;99.90;;;;;;6186615;23;20483;-83
2022/03/16 07:25:44;;;;;;;57.83;40.93;;;9.40;99.90;;;;;;6192464;23;20406;-83
2022/03/16 07:28:11;;;;;;;39.50;31.90;;;9.50;99.90;;;;;;6206430;23;20428;-82
2022/03/16 07:30:38;;;;;;;46.73;34.77;;;9.50;99.90;;;;;;6200370;23;20619;-82
2022/03/16 07:33:07;;;;;;;46.40;35.20;;;9.50;99.90;;;;;;6203754;23;20421;-82
2022/03/16 07:35:35;;;;;;;40.90;30.47;;;9.50;99.90;;;;;;6207975;23;20427;-82
2022/03/16 07:38:02;;;;;;;45.00;34.00;;;9.40;99.90;;;;;;6193452;23;20803;-84
2022/03/16 07:40:31;;;;;;;43.40;32.10;;;9.40;99.90;;;;;;6188468;23;20413;-82
2022/03/16 07:42:58;;;;;;;45.10;33.43;;;9.40;99.90;;;;;;6186521;23;20460;-83
2022/03/16 07:45:25;;;;;;;46.33;33.43;;;9.40;99.90;;;;;;6185710;23;20453;-83
2022/03/16 07:47:53;;;;;;;45.07;31.47;;;9.40;99.90;;;;;;6185176;23;20909;-83
2022/03/16 07:50:21;;;;;;;45.07;31.80;;;9.30;99.90;;;;;;6185764;23;20390;-83
2022/03/16 07:52:47;;;;;;;42.80;31.93;;;9.40;99.90;;;;;;6186703;23;20397;-83
2022/03/16 07:55:15;;;;;;;39.77;31.40;;;9.40;99.90;;;;;;6193991;23;20452;-81
2022/03/16 07:57:44;;;;;;;40.40;30.50;;;9.40;99.90;;;;;;6205668;23;20410;-87
2022/03/16 08:00:12;;;;;;;44.60;32.60;;;9.30;99.90;;;;;;6200500;23;20639;-86
2022/03/16 08:02:40;;;;;;;42.83;31.93;;;9.30;99.90;;;;;;6208548;23;20442;-84
2022/03/16 08:05:07;;;;;;;38.33;30.97;;;9.30;99.90;;;;;;6201236;23;20481;-84
2022/03/16 08:07:36;;;;;;;45.90;33.57;;;9.30;99.90;;;;;;6192081;23;21058;-85
2022/03/16 08:10:09;;;;;;;50.73;35.33;;;9.30;99.90;;;;;;6197267;23;20406;-86
2022/03/16 08:12:36;;;;;;;53.87;36.20;;;9.30;99.90;;;;;;6210295;23;20421;-83
2022/03/16 08:15:03;;;;;;;42.17;31.17;;;9.40;99.90;;;;;;6204544;23;20437;-85
2022/03/16 08:17:30;;;;;;;43.60;31.80;;;9.40;99.90;;;;;;6189768;23;20770;-86
2022/03/16 08:19:57;;;;;;;40.40;30.73;;;9.20;99.90;;;;;;6187369;23;20395;-89
2022/03/16 08:22:29;;;;;;;43.57;32.03;;;9.10;99.90;;;;;;6185859;23;20410;-89
2022/03/16 08:25:19;;;;;;;43.87;32.33;;;9.10;99.90;;;;;;6187104;23;20425;-89
2022/03/16 08:27:46;;;;;;;44.90;32.27;;;9.20;99.90;;;;;;6154033;23;20466;-91
2022/03/16 08:30:13;;;;;;;46.30;32.77;;;9.10;99.90;;;;;;6192189;23;20896;-83
2022/03/16 08:32:43;;;;;;;41.50;30.27;;;9.20;99.90;;;;;;6207681;23;20409;-87
2022/03/16 08:35:12;;;;;;;40.13;31.03;;;9.40;99.90;;;;;;6211210;23;20448;-82
2022/03/16 08:37:39;;;;;;;38.83;29.60;;;9.50;99.90;;;;;;6208374;23;20406;-83
2022/03/16 08:40:09;;;;;;;37.13;29.03;;;9.50;99.90;;;;;;6203474;23;20417;-83
2022/03/16 08:42:36;;;;;;;37.87;28.63;;;9.50;99.90;;;;;;6194152;23;20408;-83
2022/03/16 08:45:03;;;;;;;36.73;29.77;;;9.60;99.90;;;;;;6193971;23;20409;-85
2022/03/16 08:47:31;;;;;;;39.20;30.37;;;9.70;99.90;;;;;;6193640;23;20810;-83
2022/03/16 08:49:58;;;;;;;35.20;30.00;;;9.80;99.90;;;;;;6193302;23;20410;-84
2022/03/16 08:52:25;;;;;;;37.23;29.57;;;9.80;99.90;;;;;;6194436;23;20390;-84
2022/03/16 08:54:51;;;;;;;35.53;29.90;;;9.90;99.90;;;;;;6193644;23;20533;-85
2022/03/16 08:57:21;;;;;;;38.20;30.07;;;9.90;99.90;;;;;;6194006;23;20428;-83
2022/03/16 08:59:48;;;;;;;33.97;27.73;;;9.90;99.90;;;;;;6204267;23;20405;-84
2022/03/16 09:02:15;;;;;;;35.90;27.60;;;9.90;99.90;;;;;;6195408;23;20402;-84
2022/03/16 09:04:42;;;;;;;35.57;27.77;;;9.90;99.90;;;;;;6200748;23;20402;-84
2022/03/16 09:07:09;;;;;;;34.27;26.27;;;9.80;99.90;;;;;;6199719;23;20413;-84
2022/03/16 09:09:36;;;;;;;39.63;31.20;;;9.80;99.90;;;;;;6201153;23;20438;-86
2022/03/16 09:12:03;;;;;;;35.87;28.77;;;9.70;99.90;;;;;;6201825;23;20391;-87
2022/03/16 09:14:31;;;;;;;35.90;29.13;;;9.70;99.90;;;;;;6202581;23;20501;-86
2022/03/16 09:16:59;;;;;;;36.17;28.23;;;9.90;99.90;;;;;;6203565;23;20410;-87
2022/03/16 09:19:26;;;;;;;36.87;28.50;;;9.90;99.90;;;;;;6205901;23;20421;-86
2022/03/16 09:21:53;;;;;;;31.93;26.30;;;9.70;99.90;;;;;;6204609;23;20889;-87
2022/03/16 09:24:24;;;;;;;34.00;28.03;;;9.80;99.90;;;;;;6198673;23;20492;-83
2022/03/16 09:26:50;;;;;;;35.60;27.53;;;9.80;99.90;;;;;;6205026;23;20770;-84
2022/03/16 09:29:18;;;;;;;35.93;28.53;;;10.00;99.90;;;;;;6191956;23;20440;-80
2022/03/16 09:31:46;;;;;;;37.47;29.17;;;10.30;99.90;;;;;;6189994;23;20414;-82
2022/03/16 09:34:13;;;;;;;34.20;27.47;;;10.50;99.90;;;;;;6186379;23;20902;-90
2022/03/16 09:36:42;;;;;;;35.50;27.40;;;10.50;99.90;;;;;;6183464;23;20438;-86
2022/03/16 09:39:09;;;;;;;34.50;28.30;;;10.70;99.90;;;;;;6183506;23;20751;-86
2022/03/16 09:41:36;;;;;;;34.50;30.00;;;11.00;99.90;;;;;;6185368;23;20414;-86
2022/03/16 09:44:04;;;;;;;35.07;27.70;;;11.10;99.90;;;;;;6185039;23;20460;-86
2022/03/16 09:46:32;;;;;;;33.10;27.13;;;11.20;99.90;;;;;;6185661;23;20402;-86
2022/03/16 09:49:00;;;;;;;35.93;29.17;;;11.20;99.90;;;;;;6187685;23;20445;-86
2022/03/16 09:51:29;;;;;;;36.20;28.07;;;11.20;99.90;;;;;;6187346;23;20405;-86
2022/03/16 09:53:55;;;;;;;35.13;28.10;;;11.30;99.90;;;;;;6199487;23;20448;-86
2022/03/16 09:56:22;;;;;;;35.10;28.07;;;11.20;99.90;;;;;;6208635;23;20437;-86
2022/03/16 09:58:49;;;;;;;34.30;29.40;;;11.10;99.90;;;;;;6189773;23;20405;-86
2022/03/16 10:01:17;;;;;;;34.13;28.03;;;11.10;99.90;;;;;;6187343;23;20410;-86
2022/03/16 10:03:48;;;;;;;33.90;28.87;;;11.20;99.90;;;;;;6186914;23;20758;-86
2022/03/16 10:06:18;;;;;;;34.23;28.37;;;11.20;99.90;;;;;;6186721;23;20417;-87
2022/03/16 10:13:13;;;;;;;32.77;26.43;;;11.20;99.90;;;;;;6186863;23;20410;-86
2022/03/16 10:14:17;;;;;;;31.83;25.60;;;11.60;99.90;;;;;;6187037;23;20417;-86
2022/03/16 10:19:48;;;;;;;32.13;25.87;;;11.90;99.90;;;;;;6187090;23;20372;-87
2022/03/16 10:22:25;;;;;;;30.23;26.10;;;12.40;99.90;;;;;;6188110;23;20401;-86
2022/03/16 10:24:54;;;;;;;30.03;25.87;;;12.80;99.90;;;;;;6198902;23;20445;-86
2022/03/16 10:27:21;;;;;;;30.43;25.17;;;13.10;99.90;;;;;;6187524;23;20414;-87
2022/03/16 10:29:50;;;;;;;28.13;23.83;;;13.10;99.90;;;;;;6186923;23;20409;-86
2022/03/16 10:32:20;;;;;;;30.00;26.43;;;13.50;99.90;;;;;;6192118;23;20407;-87
2022/03/16 10:34:51;;;;;;;27.23;24.30;;;13.60;99.90;;;;;;6214382;23;20438;-86
2022/03/16 10:37:21;;;;;;;27.13;23.83;;;14.00;99.90;;;;;;6213884;23;20410;-86
2022/03/16 10:39:50;;;;;;;27.30;22.47;;;14.20;99.90;;;;;;6212176;23;20407;-85
2022/03/16 10:48:00;;;;;;;26.20;23.50;;;15.30;98.50;;;;;;6189341;23;20423;-86
2022/03/16 10:50:27;;;;;;;28.30;24.50;;;15.30;97.60;;;;;;6189488;23;20424;-87
2022/03/16 10:52:55;;;;;;;28.13;23.57;;;16.20;97.30;;;;;;6190230;23;20406;-86
2022/03/16 10:55:23;;;;;;;26.97;24.17;;;16.70;94.80;;;;;;6202194;23;20438;-86
2022/03/16 10:57:51;;;;;;;26.73;23.93;;;16.30;94.40;;;;;;6211694;23;20402;-86
2022/03/16 11:00:18;;;;;;;24.70;22.30;;;16.70;94.70;;;;;;6198391;23;20418;-86
2022/03/16 11:02:46;;;;;;;22.97;20.83;;;17.30;93.30;;;;;;6187445;23;20405;-86
2022/03/16 11:05:18;;;;;;;23.80;21.27;;;17.70;91.10;;;;;;6188193;23;20422;-86
2022/03/16 11:07:46;;;;;;;23.20;20.80;;;17.10;91.20;;;;;;6187580;23;20400;-86
2022/03/16 11:10:17;;;;;;;26.80;24.17;;;17.00;91.90;;;;;;6187193;23;20410;-86
2022/03/16 11:15:31;;;;;;;23.97;21.47;;;17.50;90.60;;;;;;6192117;23;20453;-85
2022/03/16 11:17:58;;;;;;;23.73;21.37;;;18.30;88.60;;;;;;6198510;23;20405;-85
2022/03/16 11:20:26;;;;;;;23.27;21.03;;;18.40;87.70;;;;;;6212295;23;20387;-86
2022/03/16 11:25:56;;;;;;;22.77;20.47;;;20.00;86.30;;;;;;6194897;23;20375;-88
2022/03/16 11:28:35;;;;;;;23.10;21.00;;;19.90;81.60;;;;;;6191784;23;20398;-86
2022/03/16 11:31:01;;;;;;;19.60;17.60;;;19.70;81.20;;;;;;6192435;23;20867;-85
2022/03/16 11:33:28;;;;;;;22.40;20.20;;;19.10;80.70;;;;;;6192850;23;20434;-86
2022/03/16 11:35:56;;;;;;;24.63;21.90;;;19.40;81.90;;;;;;6187556;23;20435;-85
2022/03/16 11:38:24;;;;;;;23.70;21.27;;;19.60;80.60;;;;;;6190792;23;20417;-85
2022/03/16 11:40:52;;;;;;;23.17;21.03;;;19.90;78.80;;;;;;6189532;23;20920;-86
2022/03/16 11:43:23;;;;;;;21.73;19.73;;;19.60;79.20;;;;;;6188250;23;20541;-86
2022/03/16 11:45:51;;;;;;;23.33;20.87;;;19.50;78.90;;;;;;6187398;23;20409;-86
2022/03/16 11:48:44;;;;;;;21.63;19.53;;;19.60;79.00;;;;;;6186852;23;20470;-85
2022/03/16 11:51:17;;;;;;;21.53;19.40;;;18.70;79.50;;;;;;6210463;23;20391;-86
2022/03/16 11:54:11;;;;;;;21.20;19.10;;;18.40;81.20;;;;;;6208545;23;20430;-86
2022/03/16 11:56:57;;;;;;;20.60;18.70;;;17.80;84.30;;;;;;6210574;23;20439;-85
2022/03/16 11:59:32;;;;;;;21.70;19.47;;;18.10;83.00;;;;;;6212049;23;20416;-85
2022/03/16 12:02:12;;;;;;;21.57;19.27;;;17.60;83.80;;;;;;6211644;23;20418;-85
2022/03/16 12:04:42;;;;;;;21.43;19.23;;;17.90;84.70;;;;;;6200350;23;20994;-85
2022/03/16 12:07:12;;;;;;;21.10;18.90;;;18.10;83.90;;;;;;6204886;23;20419;-86
2022/03/16 12:09:41;;;;;;;21.97;19.67;;;17.90;83.70;;;;;;6210234;23;20434;-86
2022/03/16 12:15:22;;;;;;;23.73;21.33;;;18.20;83.90;;;;;;6200164;23;20746;-86
2022/03/16 12:18:31;;;;;;;21.43;19.33;;;17.70;83.80;;;;;;6191418;23;20398;-85
2022/03/16 12:21:06;;;;;;;20.80;18.70;;;17.80;84.10;;;;;;6189853;23;20383;-86
2022/03/16 12:23:58;;;;;;;23.03;20.73;;;17.60;83.50;;;;;;6188308;23;20430;-86
2022/03/16 12:26:27;;;;;;;21.50;19.30;;;17.20;84.70;;;;;;6189446;23;20756;-86
2022/03/16 12:29:05;;;;;;;22.00;19.63;;;16.80;86.30;;;;;;6188637;23;20439;-86
2022/03/16 12:31:34;;;;;;;22.10;19.13;;;16.60;87.10;;;;;;6189206;23;20401;-83
2022/03/16 12:34:01;;;;;;;21.97;19.20;;;15.80;87.80;;;;;;6191611;23;20441;-87
2022/03/16 12:36:29;;;;;;;21.53;18.30;;;15.60;90.30;;;;;;6188717;23;20496;-87
2022/03/16 12:38:57;;;;;;;23.20;20.40;;;15.50;90.50;;;;;;6188091;23;20414;-86
2022/03/16 12:44:12;;;;;;;20.60;18.40;;;14.90;91.20;;;;;;6203019;23;20413;-87
2022/03/16 12:46:50;;;;;;;21.13;18.93;;;15.00;91.70;;;;;;6210877;23;20401;-87
2022/03/16 12:49:18;;;;;;;21.30;18.57;;;15.10;92.10;;;;;;6191624;23;20393;-86
2022/03/16 12:51:47;;;;;;;20.60;18.40;;;15.30;91.80;;;;;;6187560;23;20413;-86
2022/03/16 12:54:20;;;;;;;22.50;20.17;;;15.20;91.40;;;;;;6194450;23;20432;-86
2022/03/16 12:56:50;;;;;;;22.43;19.90;;;15.40;91.40;;;;;;6187534;23;20480;-87
2022/03/16 12:59:22;;;;;;;20.90;18.63;;;15.70;91.40;;;;;;6186684;23;20402;-86
2022/03/16 13:01:50;;;;;;;22.20;19.97;;;15.60;91.10;;;;;;6185893;23;20397;-86